Linthicum Heights, Maryland
Current Conditions -  °F | °C
As of 1:54 AM on Sunday 23 Nov 2014 (Local Time) from KBWI Reporting Station
Broken Clouds Broken Clouds  
Wind Chill: 39°   Ceiling: 11000
Heat Index: 44°   Visibility: 10mi
Dew Point: 18°   Wind: 9mph
Humidity: 35%   Direction: 220°SW
Pressure: 30.22"   Gusts: NA
Location:  39.2°N, 76.66°W
Report Text: KBWI 230654Z 22008KT 10SM BKN110 07/M08 A3022 RMK AO2 SLP234 T00671078
Loading
Personal Weather Stations






























Interactive Weather Map New forecast layout! Learn more

10-Day Weather Forecast

Advertisements
Track Severe Weather on mobile